Time;durP1;ratioP1;P1;durP2;ratioP2;P2;SDS_P1;SDS_P2;PMS_P1;PMS_P2;Temp;Humidity;BMP_temperature;BMP_pressure;BME280_temperature;BME280_humidity;BME280_pressure;Samples;Min_cycle;Max_cycle;Signal;HPM_P1;HPM_P2
2023/01/17 00:02:04;;;;;;;2.97;2.20;;;7.20;99.90;;;;;;5109418;28;20258;-77
2023/01/17 00:10:09;;;;;;;2.72;2.13;;;7.10;99.90;;;;;;5096610;28;20688;-77
2023/01/17 00:12:37;;;;;;;2.95;1.90;;;7.10;99.90;;;;;;5103138;28;20298;-80
2023/01/17 00:15:05;;;;;;;2.60;2.38;;;7.10;99.90;;;;;;5103139;28;20226;-78
2023/01/17 00:17:33;;;;;;;2.78;2.17;;;7.00;99.90;;;;;;5111168;28;20223;-79
2023/01/17 01:35:24;;;;;;;2.08;1.88;;;6.70;99.90;;;;;;5106079;28;20217;-80
2023/01/17 01:37:53;;;;;;;2.40;2.13;;;6.70;99.90;;;;;;5105993;28;20219;-77
2023/01/17 01:40:32;;;;;;;2.95;2.05;;;6.70;99.90;;;;;;5098975;28;20257;-77
2023/01/17 01:43:04;;;;;;;1.70;1.52;;;6.70;99.90;;;;;;5096671;28;20253;-76
2023/01/17 01:45:33;;;;;;;2.88;1.92;;;6.70;99.90;;;;;;5096378;28;20679;-79
2023/01/17 01:48:06;;;;;;;2.63;2.25;;;6.70;99.90;;;;;;5096063;28;20215;-76
2023/01/17 01:50:35;;;;;;;4.00;1.40;;;6.80;99.90;;;;;;5099020;28;20249;-78
2023/01/17 01:53:06;;;;;;;2.65;1.85;;;6.80;99.90;;;;;;5096548;28;20361;-77
2023/01/17 01:55:36;;;;;;;2.45;1.88;;;6.80;99.90;;;;;;5101862;28;20215;-79
2023/01/17 01:58:11;;;;;;;2.30;2.03;;;6.80;99.90;;;;;;5096593;28;20223;-76
2023/01/17 02:00:39;;;;;;;3.22;3.00;;;6.80;99.90;;;;;;5118039;28;20279;-79
2023/01/17 02:03:10;;;;;;;3.25;2.40;;;6.80;99.90;;;;;;5120506;28;20602;-78
2023/01/17 02:05:38;;;;;;;2.47;1.92;;;6.80;99.90;;;;;;5121724;28;20229;-78
2023/01/17 02:08:10;;;;;;;2.45;1.88;;;6.80;99.90;;;;;;5121520;28;20369;-80
2023/01/17 02:10:39;;;;;;;2.35;2.15;;;6.80;99.90;;;;;;5121614;28;20238;-80
2023/01/17 02:13:08;;;;;;;2.03;1.85;;;6.80;99.90;;;;;;5122293;27;20525;-78
2023/01/17 02:15:45;;;;;;;1.67;1.58;;;6.80;99.90;;;;;;5118123;28;20223;-79
2023/01/17 02:18:22;;;;;;;2.35;1.77;;;6.90;99.90;;;;;;5120068;27;20214;-80
2023/01/17 02:21:22;;;;;;;1.77;1.67;;;6.90;99.90;;;;;;5121708;28;20218;-80
2023/01/17 02:24:26;;;;;;;1.90;1.58;;;6.90;99.90;;;;;;5120700;28;20219;-80
2023/01/17 02:27:03;;;;;;;1.95;1.77;;;7.00;99.90;;;;;;5100057;28;20245;-80
2023/01/17 02:30:02;;;;;;;2.22;2.00;;;7.00;99.90;;;;;;5093092;28;20306;-77
2023/01/17 02:32:41;;;;;;;2.35;2.15;;;7.00;99.90;;;;;;5094684;28;20234;-78
2023/01/17 02:35:16;;;;;;;3.53;2.03;;;7.00;99.90;;;;;;5113796;28;20215;-79
2023/01/17 02:37:51;;;;;;;3.00;2.10;;;6.90;99.90;;;;;;5097175;28;20223;-77
2023/01/17 02:40:23;;;;;;;2.20;2.10;;;6.90;99.90;;;;;;5104900;28;20238;-79
2023/01/17 02:42:55;;;;;;;2.15;1.95;;;6.90;99.90;;;;;;5108900;28;20234;-79
2023/01/17 02:45:24;;;;;;;2.80;2.55;;;6.90;99.90;;;;;;5109031;28;20234;-79
2023/01/17 02:47:56;;;;;;;2.05;1.85;;;6.90;99.90;;;;;;5106836;28;20640;-76
2023/01/17 02:50:26;;;;;;;2.85;2.08;;;6.90;99.90;;;;;;5098641;28;20311;-77
2023/01/17 02:53:12;;;;;;;6.22;2.42;;;6.90;99.90;;;;;;5095988;28;20227;-77
2023/01/17 02:55:48;;;;;;;4.82;2.50;;;6.80;99.90;;;;;;5094473;28;20276;-78
2023/01/17 02:58:29;;;;;;;2.35;2.15;;;6.90;99.90;;;;;;5094178;28;20230;-76
2023/01/17 03:01:08;;;;;;;2.63;2.05;;;6.80;99.90;;;;;;5092939;28;20606;-78
2023/01/17 03:03:46;;;;;;;2.13;1.92;;;6.80;99.90;;;;;;5093287;28;20276;-76
2023/01/17 03:06:17;;;;;;;2.70;2.08;;;6.80;99.90;;;;;;5093188;28;20619;-76
2023/01/17 03:08:47;;;;;;;1.75;1.65;;;6.80;99.90;;;;;;5091932;28;20560;-78
2023/01/17 03:11:15;;;;;;;2.20;2.00;;;6.90;99.90;;;;;;5093106;28;20220;-79
2023/01/17 03:13:42;;;;;;;3.20;2.55;;;6.90;99.90;;;;;;5091877;28;20219;-78
2023/01/17 03:16:14;;;;;;;5.47;2.05;;;6.90;99.90;;;;;;5093778;28;20219;-78
2023/01/17 03:18:42;;;;;;;2.70;2.50;;;7.00;99.90;;;;;;5093840;28;20219;-80
2023/01/17 03:21:10;;;;;;;2.50;2.10;;;7.00;99.90;;;;;;5091849;28;20232;-80
2023/01/17 03:23:38;;;;;;;2.35;2.15;;;7.00;99.90;;;;;;5091786;28;20227;-80
2023/01/17 03:26:05;;;;;;;2.45;1.88;;;7.10;99.90;;;;;;5092596;28;20619;-80
2023/01/17 03:28:32;;;;;;;2.20;2.00;;;7.10;99.90;;;;;;5093207;28;20224;-79
2023/01/17 03:31:00;;;;;;;1.65;1.50;;;7.10;99.90;;;;;;5092321;28;20222;-78
2023/01/17 03:33:27;;;;;;;1.67;1.58;;;7.20;99.90;;;;;;5091797;28;20688;-79
2023/01/17 03:35:56;;;;;;;9.23;2.20;;;7.20;99.90;;;;;;5092911;28;20223;-78
2023/01/17 03:38:25;;;;;;;2.22;1.73;;;7.20;99.90;;;;;;5092967;28;20235;-77
2023/01/17 03:40:52;;;;;;;2.20;2.10;;;7.20;99.90;;;;;;5092727;28;20295;-77
2023/01/17 03:43:19;;;;;;;2.00;1.90;;;7.20;99.90;;;;;;5093089;28;20654;-78
2023/01/17 03:45:50;;;;;;;1.88;1.75;;;7.20;99.90;;;;;;5092503;28;20261;-76
2023/01/17 03:48:18;;;;;;;1.50;1.40;;;7.30;99.90;;;;;;5093301;28;20230;-76
2023/01/17 03:50:46;;;;;;;1.80;1.60;;;7.30;99.90;;;;;;5092928;28;20231;-79
2023/01/17 03:53:14;;;;;;;2.03;1.80;;;7.30;99.90;;;;;;5092513;28;20223;-77
2023/01/17 03:55:42;;;;;;;1.38;1.27;;;7.30;99.90;;;;;;5092806;28;20247;-78
2023/01/17 03:58:09;;;;;;;2.00;1.50;;;7.40;99.90;;;;;;5092639;28;20223;-79
2023/01/17 04:00:36;;;;;;;1.85;1.63;;;7.40;99.90;;;;;;5093082;28;20630;-79
2023/01/17 04:03:07;;;;;;;2.28;2.08;;;7.50;99.90;;;;;;5092346;28;20243;-80
2023/01/17 04:05:34;;;;;;;1.75;1.63;;;7.50;99.90;;;;;;5092860;28;20293;-77
2023/01/17 04:08:02;;;;;;;2.80;1.58;;;7.50;99.90;;;;;;5091742;28;20238;-77
2023/01/17 04:10:30;;;;;;;3.20;2.03;;;7.50;99.90;;;;;;5092754;28;20769;-79
2023/01/17 04:12:57;;;;;;;2.03;1.48;;;7.50;99.90;;;;;;5092432;28;20260;-79
2023/01/17 04:15:28;;;;;;;2.15;1.42;;;7.50;99.90;;;;;;5092805;28;20285;-77
2023/01/17 04:17:56;;;;;;;1.50;1.40;;;7.50;99.90;;;;;;5092070;28;20211;-77
2023/01/17 04:20:33;;;;;;;1.30;1.20;;;7.50;99.90;;;;;;5092872;28;20238;-79
2023/01/17 04:23:01;;;;;;;2.20;1.45;;;7.50;99.90;;;;;;5092231;28;20247;-77
2023/01/17 04:25:29;;;;;;;1.20;1.13;;;7.40;99.90;;;;;;5096379;28;20219;-77
2023/01/17 04:27:59;;;;;;;1.73;1.63;;;7.40;99.90;;;;;;5094066;28;20285;-79
2023/01/17 04:30:28;;;;;;;1.30;1.20;;;7.40;99.90;;;;;;5096693;28;20933;-80
2023/01/17 04:32:56;;;;;;;2.58;2.38;;;7.40;99.90;;;;;;5095369;28;20238;-79
2023/01/17 04:35:23;;;;;;;1.48;1.27;;;7.40;99.90;;;;;;5096336;28;20220;-77
2023/01/17 04:37:50;;;;;;;1.65;1.42;;;7.40;99.90;;;;;;5095683;28;20215;-80
2023/01/17 04:40:18;;;;;;;1.20;1.10;;;7.50;99.90;;;;;;5096113;28;20253;-80
2023/01/17 04:42:46;;;;;;;1.35;1.13;;;7.40;99.90;;;;;;5097027;28;20348;-77
2023/01/17 04:45:15;;;;;;;1.40;1.10;;;7.50;99.90;;;;;;5095975;28;20591;-77
2023/01/17 04:47:47;;;;;;;2.00;1.25;;;7.50;99.90;;;;;;5096309;28;20223;-77
2023/01/17 04:50:14;;;;;;;1.88;1.20;;;7.50;99.90;;;;;;5095932;28;20250;-77
2023/01/17 04:52:41;;;;;;;1.67;1.58;;;7.50;99.90;;;;;;5096194;28;20261;-77
2023/01/17 04:55:09;;;;;;;1.17;0.90;;;7.50;99.90;;;;;;5095747;28;20223;-80
2023/01/17 04:57:36;;;;;;;1.10;0.98;;;7.50;99.90;;;;;;5095986;28;20231;-80
2023/01/17 05:00:04;;;;;;;0.80;0.80;;;7.50;99.90;;;;;;5095287;28;20223;-80
2023/01/17 05:02:33;;;;;;;1.10;0.98;;;7.50;99.90;;;;;;5095730;28;20224;-80
2023/01/17 05:05:00;;;;;;;1.10;1.00;;;7.50;99.90;;;;;;5094813;28;20215;-80
2023/01/17 05:07:27;;;;;;;1.10;1.00;;;7.60;99.90;;;;;;5096019;28;20223;-80
2023/01/17 05:09:54;;;;;;;1.70;1.23;;;7.50;99.90;;;;;;5095023;28;20219;-77
2023/01/17 05:12:21;;;;;;;1.20;1.10;;;7.40;99.90;;;;;;5094881;28;20223;-77
2023/01/17 05:14:49;;;;;;;0.90;0.90;;;7.50;99.90;;;;;;5095717;28;20223;-77
2023/01/17 05:17:16;;;;;;;1.23;1.00;;;7.50;99.90;;;;;;5094676;28;20284;-77
2023/01/17 05:19:45;;;;;;;1.20;1.10;;;7.50;99.90;;;;;;5095197;28;20227;-77
2023/01/17 05:22:14;;;;;;;1.13;1.02;;;7.50;99.90;;;;;;5094459;28;20231;-77
2023/01/17 05:24:42;;;;;;;0.98;0.90;;;7.50;99.90;;;;;;5095447;28;20264;-80
2023/01/17 05:27:10;;;;;;;2.15;1.50;;;7.50;99.90;;;;;;5095249;28;20235;-80
2023/01/17 05:29:37;;;;;;;1.70;1.50;;;7.50;99.90;;;;;;5094886;28;20685;-79
2023/01/17 05:32:04;;;;;;;1.10;1.00;;;7.50;99.90;;;;;;5094746;28;20219;-80
2023/01/17 05:34:32;;;;;;;1.20;1.17;;;7.40;99.90;;;;;;5094635;28;20223;-77
2023/01/17 05:37:00;;;;;;;1.35;1.17;;;7.40;99.90;;;;;;5094309;28;20211;-77
2023/01/17 05:39:27;;;;;;;2.38;1.42;;;7.40;99.90;;;;;;5095475;28;20223;-80
2023/01/17 05:41:55;;;;;;;1.30;1.20;;;7.50;99.90;;;;;;5095108;28;20299;-80
2023/01/17 05:44:23;;;;;;;1.42;1.33;;;7.50;99.90;;;;;;5110554;27;20207;-80
2023/01/17 05:46:50;;;;;;;1.15;1.05;;;7.50;99.90;;;;;;5115793;28;20230;-79
2023/01/17 05:49:18;;;;;;;1.40;1.30;;;7.50;99.90;;;;;;5114229;28;20242;-77
2023/01/17 05:51:45;;;;;;;1.23;1.13;;;7.50;99.90;;;;;;5115362;28;20215;-80
2023/01/17 05:54:13;;;;;;;1.40;1.30;;;7.50;99.90;;;;;;5115074;27;20225;-79
2023/01/17 05:56:42;;;;;;;1.30;1.20;;;7.50;99.90;;;;;;5114729;28;20223;-77
2023/01/17 05:59:09;;;;;;;1.40;1.30;;;7.40;99.90;;;;;;5114375;27;20358;-77
2023/01/17 06:01:36;;;;;;;1.65;1.45;;;7.40;99.90;;;;;;5114332;28;20309;-77
2023/01/17 06:04:03;;;;;;;1.75;1.58;;;7.50;99.90;;;;;;5113863;27;20238;-78
2023/01/17 06:06:30;;;;;;;1.40;1.30;;;7.50;99.90;;;;;;5114494;28;20227;-77
2023/01/17 06:08:58;;;;;;;1.35;1.25;;;7.50;99.90;;;;;;5114815;28;20266;-80
2023/01/17 06:11:26;;;;;;;1.65;1.55;;;7.50;99.90;;;;;;5114127;28;20223;-80
2023/01/17 06:13:53;;;;;;;1.40;1.30;;;7.60;99.90;;;;;;5115096;28;20283;-78
2023/01/17 06:16:20;;;;;;;1.40;1.30;;;7.60;99.90;;;;;;5114071;28;20219;-80
2023/01/17 06:18:47;;;;;;;1.40;1.30;;;7.60;99.90;;;;;;5114072;28;20291;-78
2023/01/17 06:21:15;;;;;;;1.38;1.27;;;7.60;99.90;;;;;;5114527;27;20226;-77
2023/01/17 06:23:42;;;;;;;1.48;1.38;;;7.60;99.90;;;;;;5115257;28;20574;-80
2023/01/17 06:26:10;;;;;;;1.33;1.23;;;7.60;99.90;;;;;;5114109;28;20226;-80
2023/01/17 06:28:39;;;;;;;1.50;1.40;;;7.60;99.90;;;;;;5116558;27;20226;-78
2023/01/17 06:31:07;;;;;;;2.53;1.40;;;7.50;99.90;;;;;;5122928;28;20291;-78
2023/01/17 06:33:37;;;;;;;1.55;1.40;;;7.50;99.90;;;;;;5122203;28;20218;-80
2023/01/17 06:36:05;;;;;;;1.38;1.27;;;7.50;99.90;;;;;;5124644;27;20257;-78
2023/01/17 06:38:33;;;;;;;2.22;1.80;;;7.40;99.90;;;;;;5124417;28;20231;-78
2023/01/17 06:41:04;;;;;;;1.67;1.52;;;7.40;99.90;;;;;;5124994;28;20247;-78
2023/01/17 06:43:32;;;;;;;1.83;1.73;;;7.40;99.90;;;;;;5124031;28;20247;-80
2023/01/17 06:46:01;;;;;;;1.42;1.33;;;7.40;99.90;;;;;;5123608;27;20250;-80
2023/01/17 06:48:28;;;;;;;1.40;1.30;;;7.40;99.90;;;;;;5114721;28;20223;-80
2023/01/17 06:50:57;;;;;;;1.67;1.58;;;7.50;99.90;;;;;;5114049;28;20652;-78
2023/01/17 06:53:24;;;;;;;1.40;1.30;;;7.50;99.90;;;;;;5113446;28;20696;-80
2023/01/17 06:55:51;;;;;;;1.75;1.42;;;7.50;99.90;;;;;;5103243;28;20237;-80
2023/01/17 06:58:18;;;;;;;1.88;1.70;;;7.50;99.90;;;;;;5112646;28;20226;-80
2023/01/17 07:00:45;;;;;;;1.60;1.50;;;7.50;99.90;;;;;;5114390;27;20227;-81
2023/01/17 07:03:20;;;;;;;2.30;1.65;;;7.60;99.90;;;;;;5113350;28;20623;-80
2023/01/17 07:05:48;;;;;;;2.65;2.20;;;7.60;99.90;;;;;;5113011;28;20226;-81
2023/01/17 07:08:16;;;;;;;1.20;1.10;;;7.50;99.90;;;;;;5112569;28;20299;-78
2023/01/17 07:10:44;;;;;;;2.35;2.10;;;7.50;99.90;;;;;;5114049;27;20230;-78
2023/01/17 07:13:11;;;;;;;1.88;1.60;;;7.50;99.90;;;;;;5113554;27;20218;-77
2023/01/17 07:15:42;;;;;;;3.00;2.35;;;7.50;99.90;;;;;;5102551;28;20276;-77
2023/01/17 07:18:09;;;;;;;2.13;2.03;;;7.50;99.90;;;;;;5112413;28;20233;-78
2023/01/17 07:20:42;;;;;;;3.05;2.67;;;7.40;99.90;;;;;;5112897;28;20295;-78
2023/01/17 07:23:12;;;;;;;3.85;2.92;;;7.50;99.90;;;;;;5113377;28;20544;-77
2023/01/17 07:25:39;;;;;;;6.47;4.15;;;7.50;99.90;;;;;;5111965;28;20222;-80
2023/01/17 07:28:07;;;;;;;2.63;2.42;;;7.50;99.90;;;;;;5113854;28;20287;-80
2023/01/17 07:30:34;;;;;;;2.42;1.50;;;7.40;99.90;;;;;;5113232;28;20222;-78
2023/01/17 07:33:01;;;;;;;1.98;1.70;;;7.50;99.90;;;;;;5113479;28;20229;-80
2023/01/17 07:35:29;;;;;;;1.75;1.65;;;7.50;99.90;;;;;;5104462;28;20309;-78
2023/01/17 07:37:58;;;;;;;2.45;2.25;;;7.50;99.90;;;;;;5113686;28;20313;-80
2023/01/17 07:40:26;;;;;;;5.10;3.92;;;7.50;99.90;;;;;;5102086;28;20219;-80
2023/01/17 07:43:00;;;;;;;4.40;4.05;;;7.50;99.90;;;;;;5115558;28;20253;-80
2023/01/17 07:45:30;;;;;;;6.25;4.68;;;7.50;99.90;;;;;;5117001;28;20226;-80
2023/01/17 07:47:59;;;;;;;5.05;4.55;;;7.50;99.90;;;;;;5116597;28;20218;-80
2023/01/17 07:50:26;;;;;;;6.97;6.00;;;7.50;99.90;;;;;;5116183;28;20230;-77
2023/01/17 07:52:53;;;;;;;3.72;2.90;;;7.50;99.90;;;;;;5104280;28;20290;-77
2023/01/17 07:55:21;;;;;;;1.60;1.50;;;7.50;99.90;;;;;;5114178;28;20219;-77
2023/01/17 07:57:50;;;;;;;2.50;2.30;;;7.50;99.90;;;;;;5116143;28;20550;-78
2023/01/17 08:00:18;;;;;;;2.58;2.22;;;7.40;99.90;;;;;;5118659;28;20717;-77
2023/01/17 08:02:45;;;;;;;2.13;2.03;;;7.40;99.90;;;;;;5118017;28;20279;-80
2023/01/17 08:05:16;;;;;;;2.08;1.92;;;7.40;99.90;;;;;;5120515;28;20246;-78
2023/01/17 08:07:46;;;;;;;2.40;2.15;;;7.40;99.90;;;;;;5119886;28;20222;-80
2023/01/17 08:10:16;;;;;;;3.92;2.47;;;7.40;99.90;;;;;;5121648;28;20267;-80
2023/01/17 08:12:45;;;;;;;2.70;2.50;;;7.40;99.90;;;;;;5112593;27;20574;-80
2023/01/17 08:15:13;;;;;;;2.00;1.80;;;7.40;99.90;;;;;;5121245;27;20222;-78
2023/01/17 08:17:44;;;;;;;2.22;2.03;;;7.50;99.90;;;;;;5118157;27;20306;-77
2023/01/17 08:20:12;;;;;;;1.95;1.85;;;7.50;99.90;;;;;;5117400;28;20251;-76
2023/01/17 08:22:39;;;;;;;2.00;1.45;;;7.50;99.90;;;;;;5116727;28;20636;-81
2023/01/17 08:25:07;;;;;;;2.13;1.98;;;7.50;99.90;;;;;;5121618;28;20648;-77
2023/01/17 08:27:34;;;;;;;2.15;1.95;;;7.50;99.90;;;;;;5119244;27;20233;-79
2023/01/17 08:30:03;;;;;;;1.90;1.80;;;7.50;99.90;;;;;;5119880;27;20237;-76
2023/01/17 08:32:30;;;;;;;3.20;1.80;;;7.50;99.90;;;;;;5119196;28;20310;-78
2023/01/17 08:35:01;;;;;;;2.17;1.45;;;7.50;99.90;;;;;;5117985;28;20219;-78
2023/01/17 08:37:31;;;;;;;2.20;1.95;;;7.50;99.90;;;;;;5118122;28;20651;-76
2023/01/17 08:39:58;;;;;;;1.80;1.70;;;7.50;99.90;;;;;;5120342;28;20225;-80
2023/01/17 08:42:26;;;;;;;1.42;1.33;;;7.50;99.90;;;;;;5119947;28;20218;-79
2023/01/17 08:44:53;;;;;;;2.00;1.80;;;7.60;99.90;;;;;;5117950;28;20699;-77
2023/01/17 08:47:21;;;;;;;6.25;5.10;;;7.60;99.90;;;;;;5118197;28;20676;-79
2023/01/17 08:49:50;;;;;;;3.35;2.78;;;7.60;99.90;;;;;;5115812;27;20736;-79
2023/01/17 08:52:18;;;;;;;3.60;3.30;;;7.50;99.90;;;;;;5117219;28;20648;-79
2023/01/17 08:54:46;;;;;;;2.85;2.55;;;7.60;99.90;;;;;;5116436;28;20223;-77
2023/01/17 08:57:20;;;;;;;3.05;2.75;;;7.50;99.90;;;;;;5117665;28;20679;-77
2023/01/17 08:59:48;;;;;;;2.28;2.17;;;7.60;99.90;;;;;;5117146;27;20225;-78
2023/01/17 09:02:16;;;;;;;2.80;2.60;;;7.60;99.90;;;;;;5119316;28;20226;-78
2023/01/17 09:04:46;;;;;;;2.30;1.65;;;7.60;99.90;;;;;;5116316;28;20219;-78
2023/01/17 09:07:20;;;;;;;2.22;2.13;;;7.50;99.90;;;;;;5115143;28;20252;-79
2023/01/17 09:09:51;;;;;;;2.15;1.60;;;7.50;99.90;;;;;;5116080;28;20237;-78
2023/01/17 09:12:22;;;;;;;1.90;1.55;;;7.50;99.90;;;;;;5115940;28;20299;-80
2023/01/17 09:14:49;;;;;;;1.65;1.55;;;7.60;99.90;;;;;;5116737;28;20229;-80
2023/01/17 09:17:24;;;;;;;1.52;1.40;;;7.60;99.90;;;;;;5116925;27;20223;-79
2023/01/17 09:19:58;;;;;;;1.60;1.35;;;7.60;99.90;;;;;;5120026;28;20218;-80
2023/01/17 09:25:23;;;;;;;1.60;1.50;;;7.80;99.90;;;;;;5076263;28;20224;-79
2023/01/17 09:27:51;;;;;;;1.58;1.13;;;7.80;99.90;;;;;;5107990;28;20292;-80
2023/01/17 09:30:19;;;;;;;2.47;1.60;;;7.80;99.90;;;;;;5120661;28;20230;-77
2023/01/17 09:32:53;;;;;;;1.45;1.35;;;7.80;99.90;;;;;;5117348;28;20226;-77
2023/01/17 09:35:24;;;;;;;2.78;1.35;;;7.90;99.90;;;;;;5115186;28;20229;-79
2023/01/17 09:37:51;;;;;;;2.45;1.73;;;8.00;99.90;;;;;;5117407;28;20250;-79
2023/01/17 09:40:23;;;;;;;6.72;2.22;;;8.00;99.90;;;;;;5120154;28;20237;-80
2023/01/17 09:42:53;;;;;;;3.90;2.70;;;8.00;99.90;;;;;;5120840;28;20503;-80
2023/01/17 09:45:21;;;;;;;3.10;2.58;;;8.00;99.90;;;;;;5122179;28;20695;-77
2023/01/17 09:47:51;;;;;;;3.05;2.60;;;8.20;99.90;;;;;;5120434;28;20238;-77
2023/01/17 09:50:29;;;;;;;1.52;1.13;;;8.20;99.90;;;;;;5115459;28;20287;-78
2023/01/17 09:53:00;;;;;;;2.15;1.50;;;8.20;99.90;;;;;;5095400;28;20608;-79
2023/01/17 09:55:31;;;;;;;1.77;1.27;;;8.20;99.90;;;;;;5095575;28;20246;-79
2023/01/17 09:58:03;;;;;;;1.75;1.08;;;8.20;99.90;;;;;;5094723;28;20231;-79
2023/01/17 10:00:53;;;;;;;2.42;1.85;;;8.20;99.90;;;;;;5098648;28;20605;-77
2023/01/17 10:03:46;;;;;;;1.52;1.30;;;8.20;99.90;;;;;;5097079;28;20322;-77
2023/01/17 10:06:28;;;;;;;1.05;0.90;;;8.20;99.90;;;;;;5095588;28;20310;-76
2023/01/17 10:09:06;;;;;;;2.33;1.60;;;8.20;99.90;;;;;;5096075;28;20284;-77
2023/01/17 10:11:49;;;;;;;1.50;1.00;;;8.30;99.90;;;;;;5103536;28;20230;-77
2023/01/17 10:14:39;;;;;;;2.13;1.60;;;8.20;99.90;;;;;;5095832;28;20615;-78
2023/01/17 10:17:16;;;;;;;4.95;1.35;;;8.30;99.90;;;;;;5095876;28;20223;-78
2023/01/17 10:19:59;;;;;;;4.70;1.42;;;8.30;99.90;;;;;;5094822;28;20307;-79
2023/01/17 10:23:04;;;;;;;1.95;1.20;;;8.30;99.90;;;;;;5093201;28;20572;-77
2023/01/17 10:25:50;;;;;;;1.25;1.15;;;8.30;99.90;;;;;;5095984;28;20227;-77
2023/01/17 10:28:21;;;;;;;1.92;1.75;;;8.30;99.90;;;;;;5094345;28;20224;-79
2023/01/17 10:30:50;;;;;;;1.98;1.30;;;8.30;99.90;;;;;;5085554;28;20224;-79
2023/01/17 10:33:21;;;;;;;2.95;2.13;;;8.30;99.90;;;;;;5094566;28;20219;-76
2023/01/17 10:35:57;;;;;;;1.30;1.20;;;8.20;99.90;;;;;;5096049;28;20223;-78
2023/01/17 10:38:33;;;;;;;2.85;1.17;;;8.20;99.90;;;;;;5096366;28;20659;-76
2023/01/17 10:41:06;;;;;;;1.92;1.63;;;8.20;99.90;;;;;;5096483;28;20227;-76
2023/01/17 10:43:48;;;;;;;1.92;1.30;;;8.10;99.90;;;;;;5093836;28;20586;-80
2023/01/17 10:46:19;;;;;;;1.30;1.17;;;8.10;99.90;;;;;;5097182;28;20219;-79
2023/01/17 10:48:50;;;;;;;1.35;1.25;;;8.10;99.90;;;;;;5097095;28;20620;-77
2023/01/17 10:51:51;;;;;;;2.67;1.20;;;8.10;99.90;;;;;;5084235;28;20276;-78
2023/01/17 10:54:34;;;;;;;1.00;0.90;;;8.10;99.90;;;;;;5052589;28;20239;-79
2023/01/17 10:57:02;;;;;;;1.17;0.95;;;8.00;99.90;;;;;;5096496;28;20254;-77
2023/01/17 10:59:32;;;;;;;1.10;1.00;;;8.00;99.90;;;;;;5095116;28;20227;-80
2023/01/17 11:02:03;;;;;;;1.02;0.90;;;8.00;99.90;;;;;;5095925;28;20616;-79
2023/01/17 11:04:39;;;;;;;2.22;0.90;;;8.00;99.90;;;;;;5096492;28;20223;-80
2023/01/17 11:07:15;;;;;;;1.33;1.08;;;8.00;99.90;;;;;;5098835;28;20562;-78
2023/01/17 11:09:48;;;;;;;1.55;0.90;;;8.00;99.90;;;;;;5097900;28;20250;-79
2023/01/17 11:12:29;;;;;;;1.35;1.25;;;8.00;99.90;;;;;;5105164;28;20249;-76
2023/01/17 11:15:02;;;;;;;1.10;1.00;;;8.00;99.90;;;;;;5112043;28;20233;-77
2023/01/17 11:17:30;;;;;;;1.10;1.00;;;8.00;99.90;;;;;;5105740;28;20283;-78
2023/01/17 11:20:14;;;;;;;2.15;1.60;;;8.00;99.90;;;;;;5108715;28;20284;-80
2023/01/17 11:22:45;;;;;;;0.88;0.85;;;7.90;99.90;;;;;;5111889;28;20231;-80
2023/01/17 11:25:23;;;;;;;1.15;0.90;;;7.90;99.90;;;;;;5106361;28;20276;-76
2023/01/17 11:28:04;;;;;;;1.63;0.85;;;7.90;99.90;;;;;;5117398;28;20219;-76
2023/01/17 11:30:33;;;;;;;2.67;1.02;;;7.90;99.90;;;;;;5122631;28;20545;-79
2023/01/17 11:33:05;;;;;;;1.50;1.40;;;7.80;99.90;;;;;;5121213;28;20242;-79
2023/01/17 11:35:37;;;;;;;1.77;1.23;;;7.90;99.90;;;;;;5117104;28;20233;-78
2023/01/17 11:38:13;;;;;;;2.28;1.25;;;7.80;99.90;;;;;;5118993;28;20260;-80
2023/01/17 11:40:43;;;;;;;2.15;1.48;;;7.80;99.90;;;;;;5122533;28;20230;-77
2023/01/17 11:43:27;;;;;;;1.67;1.27;;;7.70;99.90;;;;;;5107146;28;20227;-79
2023/01/17 11:46:19;;;;;;;1.92;1.30;;;7.80;99.90;;;;;;5114932;28;20328;-77
2023/01/17 11:48:49;;;;;;;1.65;1.30;;;7.70;99.90;;;;;;5097424;28;20216;-77
2023/01/17 11:51:27;;;;;;;1.83;1.02;;;7.60;99.90;;;;;;5099331;28;20229;-78
2023/01/17 11:54:17;;;;;;;1.38;1.27;;;7.60;99.90;;;;;;5088209;28;20241;-77
2023/01/17 11:56:46;;;;;;;1.42;1.00;;;7.50;99.90;;;;;;5104312;28;20227;-78
2023/01/17 11:59:36;;;;;;;1.50;1.30;;;7.40;99.90;;;;;;5101988;28;20268;-80
2023/01/17 12:02:36;;;;;;;1.40;1.20;;;7.40;99.90;;;;;;5104033;28;20223;-79
2023/01/17 12:05:16;;;;;;;3.10;1.17;;;7.40;99.90;;;;;;5096131;28;20288;-78
2023/01/17 12:07:52;;;;;;;2.45;1.30;;;7.40;99.90;;;;;;5095544;28;20234;-79
2023/01/17 12:10:25;;;;;;;1.65;1.55;;;7.40;99.90;;;;;;5094461;28;20222;-76
2023/01/17 12:16:00;;;;;;;2.65;1.77;;;7.40;99.90;;;;;;5092849;28;20304;-79
2023/01/17 12:18:42;;;;;;;1.90;1.40;;;7.30;99.90;;;;;;5095145;28;20223;-76
2023/01/17 12:21:19;;;;;;;2.08;1.45;;;7.30;99.90;;;;;;5095314;28;20646;-79
2023/01/17 12:24:02;;;;;;;3.63;1.65;;;7.30;99.90;;;;;;5092711;28;20219;-77
2023/01/17 12:26:40;;;;;;;2.35;1.38;;;7.30;99.90;;;;;;5093570;28;20246;-80
2023/01/17 12:29:30;;;;;;;1.40;1.30;;;7.30;99.90;;;;;;5093318;28;20227;-77
2023/01/17 12:32:09;;;;;;;1.30;1.00;;;7.30;99.90;;;;;;5092279;28;20215;-77
2023/01/17 12:34:43;;;;;;;3.28;1.58;;;7.30;99.90;;;;;;5093299;28;20680;-80
2023/01/17 12:37:20;;;;;;;2.80;1.55;;;7.40;99.90;;;;;;5084359;28;20223;-79
2023/01/17 12:39:54;;;;;;;1.85;1.50;;;7.40;99.90;;;;;;5095569;28;20227;-79
2023/01/17 12:42:26;;;;;;;1.80;1.70;;;7.40;99.90;;;;;;5093041;28;20265;-79
2023/01/17 12:45:01;;;;;;;3.65;1.40;;;7.50;99.90;;;;;;5095159;28;20285;-76
2023/01/17 12:47:29;;;;;;;3.08;1.40;;;7.50;99.90;;;;;;5096376;28;20334;-79
2023/01/17 12:50:05;;;;;;;2.50;1.50;;;7.60;99.90;;;;;;5096754;28;20667;-79
2023/01/17 12:52:46;;;;;;;1.50;1.40;;;7.60;99.90;;;;;;5095749;28;20223;-76
2023/01/17 12:55:21;;;;;;;2.55;1.25;;;7.70;99.90;;;;;;5095845;28;20223;-78
2023/01/17 12:57:57;;;;;;;2.80;1.60;;;7.70;99.90;;;;;;5096034;28;20302;-77
2023/01/17 13:00:43;;;;;;;2.85;1.33;;;7.70;99.90;;;;;;5095488;28;20231;-76
2023/01/17 13:03:23;;;;;;;2.22;1.38;;;7.70;99.90;;;;;;5095912;28;20280;-79
2023/01/17 13:05:52;;;;;;;2.60;1.35;;;7.70;99.90;;;;;;5096500;28;20294;-80
2023/01/17 13:08:27;;;;;;;2.35;1.48;;;7.70;99.90;;;;;;5095983;28;20223;-78
2023/01/17 13:10:59;;;;;;;2.55;1.83;;;7.70;99.90;;;;;;5096633;28;20668;-78
2023/01/17 13:13:28;;;;;;;2.47;2.20;;;7.70;99.90;;;;;;5085894;28;20227;-76
2023/01/17 13:16:02;;;;;;;2.28;2.08;;;7.70;99.90;;;;;;5096132;28;20568;-78
2023/01/17 13:18:32;;;;;;;5.13;1.80;;;7.70;99.90;;;;;;5095905;28;20300;-78
2023/01/17 13:21:29;;;;;;;3.00;1.48;;;7.70;99.90;;;;;;5094235;28;20673;-79
2023/01/17 13:24:17;;;;;;;3.63;1.85;;;7.80;99.90;;;;;;5095170;28;20223;-76
2023/01/17 13:27:00;;;;;;;2.47;1.40;;;7.70;99.90;;;;;;5094770;28;20224;-76
2023/01/17 13:29:36;;;;;;;4.72;1.70;;;7.70;99.90;;;;;;5095204;28;20219;-79
2023/01/17 13:32:26;;;;;;;1.25;1.15;;;7.80;99.90;;;;;;5095432;28;20223;-79
2023/01/17 13:35:13;;;;;;;8.55;6.20;;;7.80;99.90;;;;;;5094807;28;20256;-76
2023/01/17 13:38:04;;;;;;;2.55;2.35;;;7.80;99.90;;;;;;5094982;28;20215;-77
2023/01/17 13:40:52;;;;;;;5.03;2.20;;;7.80;99.90;;;;;;5084762;28;20227;-76
2023/01/17 13:43:38;;;;;;;1.38;1.25;;;7.80;99.90;;;;;;5094359;28;20224;-77
2023/01/17 13:46:07;;;;;;;1.85;1.20;;;7.80;99.90;;;;;;5104059;27;20276;-76
2023/01/17 13:48:37;;;;;;;1.50;1.40;;;7.80;99.90;;;;;;5094261;28;20597;-76
2023/01/17 13:51:05;;;;;;;2.08;1.10;;;7.80;99.90;;;;;;5096662;28;20323;-79
2023/01/17 13:53:59;;;;;;;4.22;2.15;;;7.80;99.90;;;;;;5096431;28;20219;-76
2023/01/17 13:56:32;;;;;;;2.78;1.30;;;7.80;99.90;;;;;;5095781;28;20219;-79
2023/01/17 13:59:29;;;;;;;1.80;1.50;;;7.80;99.90;;;;;;5097504;28;20293;-79
2023/01/17 14:01:56;;;;;;;2.20;1.50;;;7.80;99.90;;;;;;5097862;28;20672;-79
2023/01/17 14:04:46;;;;;;;3.25;1.50;;;7.80;99.90;;;;;;5098133;28;20387;-81
2023/01/17 14:07:26;;;;;;;2.78;1.20;;;7.80;99.90;;;;;;5095932;28;20219;-78
2023/01/17 14:09:53;;;;;;;2.58;1.60;;;7.80;99.90;;;;;;5089653;28;20632;-79
2023/01/17 14:12:33;;;;;;;2.33;1.60;;;7.80;99.90;;;;;;5096350;28;20326;-79
2023/01/17 14:15:04;;;;;;;3.47;1.75;;;7.90;99.90;;;;;;5096441;28;20223;-80
2023/01/17 14:17:50;;;;;;;2.33;1.75;;;7.80;99.90;;;;;;5096146;28;20234;-78
2023/01/17 14:20:51;;;;;;;1.60;1.30;;;7.90;99.90;;;;;;5083665;28;20300;-79
2023/01/17 14:23:47;;;;;;;2.55;1.65;;;7.90;99.90;;;;;;5097405;28;20227;-80
2023/01/17 14:26:28;;;;;;;3.63;1.63;;;7.90;99.90;;;;;;5087626;28;20275;-79
2023/01/17 14:29:09;;;;;;;6.03;1.77;;;7.90;99.90;;;;;;5098843;28;20515;-79
2023/01/17 14:31:40;;;;;;;3.85;1.70;;;7.90;99.90;;;;;;5099264;28;20233;-79
2023/01/17 14:34:12;;;;;;;2.47;1.80;;;7.90;99.90;;;;;;5096015;28;20292;-77
2023/01/17 14:36:42;;;;;;;2.10;1.83;;;7.90;99.90;;;;;;5093880;28;20219;-76
2023/01/17 14:39:22;;;;;;;3.38;1.55;;;7.90;99.90;;;;;;5094083;28;20298;-77
2023/01/17 14:41:50;;;;;;;2.03;1.75;;;7.90;99.90;;;;;;5094144;28;20286;-78
2023/01/17 14:44:20;;;;;;;1.98;1.50;;;7.80;99.90;;;;;;5095474;28;20280;-78
2023/01/17 14:46:51;;;;;;;4.15;1.67;;;7.80;99.90;;;;;;5104650;28;20226;-77
2023/01/17 14:49:24;;;;;;;3.28;1.38;;;7.80;99.90;;;;;;5101606;28;20223;-79
2023/01/17 14:52:03;;;;;;;3.10;1.33;;;7.70;99.90;;;;;;5098112;28;20215;-77
2023/01/17 14:54:32;;;;;;;5.70;1.45;;;7.60;99.90;;;;;;5106639;28;20231;-79